x

Los Angeles Pier F, Ca - 9410670 (pfxc1) Weather Station

11:18 - Tue 27th Sep 2016 All times are PDT. -7 hours from GMT.

  • Wind
    10mph, 11mph gusts
  • Luft Temp 76°f
  • Sea Pressure 1010.3mb
  • Los Angeles Pier F, Ca - 9410670
  • Los Angeles Pier F, Ca - 9410670

More Historic Weather Station data

Upgrade to MSW Pro to gain access to the past 30 days of data for over 8000 Wavebouys and Weather Stations around the globe.

Join Pro

Comparision Forecast

View Surf forecast
   
Di 09/27 11:18 10 11 mph 1010.3mb 76f
11:12 8 11 mph 1010.2mb 77f
11:06 6 7 mph 1010.2mb 78f
11:00 6 8 mph 1010.3mb 79f
10:54 5 6 mph 1010.3mb 79f
10:48 6 7 mph 1010.3mb 80f
10:42 3
mph
1010.6mb 83f
10:36 5 6 mph 1010.4mb 80f
10:30 5 6 mph 1010.2mb 80f
10:24 2 5 mph 1010.3mb 83f
10:18 1 3 mph 1010.2mb 82f
10:12 1 2 mph 1010.1mb 84f
10:06 1 2 mph 1010.1mb 87f
10:00  -  1 mph 1010.4mb 88f
9:54 1 2 mph 1010.4mb 87f
9:48 2
mph
1010.4mb 86f
9:42 3 5 mph 1010.3mb 85f
9:36 3 5 mph 1010.3mb 84f
9:30 2 3 mph 1010.4mb 82f
9:24 2
mph
1010.3mb 83f
9:18 1 2 mph 1010.3mb 85f
9:12  -  2 mph 1010.4mb 85f
9:06 2
mph
1010.4mb 83f
9:00 2 3 mph 1010.2mb 80f
8:54 3 5 mph 1009.9mb 81f
8:48 5 6 mph 1010.1mb 80f
8:42 6 7 mph 1009.9mb 80f
8:36 5 6 mph 1010mb 79f
8:30 3 5 mph 1009.9mb 78f
8:18 6 7 mph 1010mb 78f
8:12 6 7 mph 1009.9mb 77f
8:06 6
mph
1010.2mb 77f
8:00 5
mph
1010.3mb 76f
7:54 5
mph
1010.3mb 75f
7:48 5
mph
1010.1mb 74f
7:42 5
mph
1010mb 73f
7:36 5
mph
1009.9mb 73f
7:30 3
mph
1009.9mb 73f
7:24 5 6 mph 1009.9mb 73f
7:18 6
mph
1009.9mb 73f
7:12 6 7 mph 1010mb 72f
7:06 6 7 mph 1009.9mb 71f
7:00 5 6 mph 1009.9mb 71f
6:54 5
mph
1009.9mb 71f
6:48 5 6 mph 1009.8mb 71f
6:42 6
mph
1009.7mb 70f
6:36 6 7 mph 1009.6mb 71f
6:30 8 9 mph 1009.6mb 72f
6:24 8 9 mph 1009.6mb 72f
6:18 8 9 mph 1009.6mb 71f
6:12 6 8 mph 1009.5mb 71f
6:06 6
mph
1009.6mb 72f
6:00 6 7 mph 1009.6mb 72f
5:54 6 7 mph 1009.5mb 72f
5:48 6
mph
1009.4mb 72f
5:42 5
mph
1009.4mb 71f
5:36 3 5 mph 1009.4mb 71f
5:30 2 3 mph 1009.4mb 73f
5:24 2 3 mph 1009.4mb 74f
5:18 2 3 mph 1009.4mb 73f
5:12 2 3 mph 1009.5mb 73f
5:06 1 3 mph 1009.6mb 73f
5:00 1 3 mph 1009.6mb 74f
4:54 3 5 mph 1009.6mb 74f
4:48 2 3 mph 1009.6mb 74f
4:42 2 3 mph 1009.6mb 73f
4:36 1 2 mph 1009.4mb 73f
4:30 3 5 mph 1009.5mb 73f
4:24 3 5 mph 1009.5mb 71f
4:18 5
mph
1009.4mb 71f
4:12 5
mph
1009.5mb 71f
4:06 3 5 mph 1009.5mb 71f
4:00 2
mph
1009.4mb 71f
3:54 1 2 mph 1009.4mb 70f
3:48 2 5 mph 1009.4mb 70f
3:42 5 7 mph 1009.5mb 70f
3:36 2 7 mph 1009.5mb 73f
3:30 2 3 mph 1009.6mb 75f
3:24 2 3 mph 1009.7mb 75f
3:18 2 3 mph 1009.6mb 76f
3:12 5 8 mph 1009.6mb 75f
3:06 6 8 mph 1009.6mb 75f
3:00 5 6 mph 1009.6mb 76f
2:54 5 6 mph 1009.6mb 76f
2:48 6 7 mph 1009.6mb 76f
2:42 6 7 mph 1009.7mb 77f
2:36 6
mph
1009.7mb 76f
2:30 5 6 mph 1009.7mb 76f
2:24 2 3 mph 1009.7mb 76f
2:18  -  1 mph 1009.6mb 76f
2:12 1 2 mph 1009.6mb 77f
2:06 2
mph
1009.6mb 77f
2:00 3
mph
1009.7mb 77f
1:54 5 6 mph 1009.7mb 77f
1:48 7
mph
1009.7mb 77f
1:42 8
mph
1009.7mb 77f
1:36 6 8 mph 1009.8mb 76f
1:30 6 7 mph 1009.9mb 76f
1:18 6 7 mph 1009.9mb 77f
1:12 3 6 mph 1010.1mb 77f
1:06 2 3 mph 1010.1mb 78f
1:00 2 5 mph 1010.2mb 79f
12:54 3 5 mph 1010.2mb 79f
12:48 5
mph
1010.3mb 80f
12:42 3 6 mph 1010.3mb 80f
12:36 2 5 mph 1010.3mb 80f
12:30 3 5 mph 1010.3mb 79f
12:24 2 3 mph 1010.3mb 80f
12:18 2 3 mph 1010.4mb 80f
12:12 1 3 mph 1010.4mb 80f
12:06 2 3 mph 1010.5mb 80f
12:00 2 3 mph 1010.4mb 80f
Mo 09/26 11:54 3 5 mph 1010.4mb 80f
11:48 6
mph
1010.4mb -
11:42 6 7 mph 1010.4mb -
11:36 6 7 mph 1010.4mb -
11:30 5 6 mph 1010.4mb 82f
11:24 3 6 mph 1010.5mb 82f
11:18 3 6 mph 1010.5mb 82f
11:12 3 5 mph 1010.5mb 82f
11:06 3 5 mph 1010.5mb 82f
11:00 2 5 mph 1010.5mb 82f
10:54 2 6 mph 1010.5mb 83f
10:48 5 8 mph 1010.7mb -
10:42 5 8 mph 1010.6mb -
10:36 3 7 mph 1010.5mb -
10:30 1 2 mph 1010.4mb 83f
10:24 3 5 mph 1010.5mb 84f
10:18 5 6 mph 1010.4mb 83f
10:12 5 6 mph 1010.5mb 83f
10:06 6
mph
1010.6mb 83f
10:00 7
mph
1010.6mb 82f
9:54 7 8 mph 1010.7mb 81f
9:48 8 9 mph 1010.8mb 82f
9:42 7 8 mph 1010.9mb 82f
9:36 6 7 mph 1011mb 80f
9:30 6 7 mph 1010.9mb 79f
9:24 7 8 mph 1010.8mb 77f
9:18 6 9 mph 1010.6mb 78f
9:12 3 5 mph 1010.7mb 84f
9:06 5
mph
1011mb 85f
9:00 5
mph
1010.9mb 81f
8:54 2
mph
1010.7mb 80f
8:48 1 2 mph 1010.6mb 80f
8:42 1 2 mph 1010.6mb 85f
8:36 1 3 mph 1010.6mb 86f
8:30 3 5 mph 1010.5mb 85f
8:24 2 5 mph 1010.5mb 88f
8:18 3
mph
1010.4mb 89f
8:12 3 5 mph 1010.4mb 89f
8:06 5 6 mph 1010.4mb 88f
8:00 6 7 mph 1010.4mb 87f
7:54 6 9 mph 1010.4mb 89f
7:48 8 14 mph 1010.4mb 89f
7:42 6 10 mph 1010.2mb 88f
7:36 5 8 mph 1010mb 89f
7:30 6 7 mph 1009.9mb 89f
7:24 6 9 mph 1009.8mb 90f
7:18 8 13 mph 1009.7mb 91f
7:12 9 14 mph 1009.6mb 91f
7:06 8 13 mph 1009.5mb 91f
7:00 9 11 mph 1009.6mb 91f
6:54 8 11 mph 1009.6mb 91f
6:48 8 13 mph 1009.6mb 91f
6:42 8 10 mph 1009.6mb 91f
6:36 8 11 mph 1009.6mb 91f
6:30 7 9 mph 1009.7mb 91f
6:24 7 9 mph 1009.6mb 89f
6:18  -  mph 1009.4mb 88f
6:12  -  mph 1009.5mb 91f
6:06  -  mph 1009.6mb 91f
6:00 8 11 mph 1009.7mb 90f
5:54 7 11 mph 1009.8mb 88f
5:48 8 10 mph 1009.8mb 86f
5:42 8 11 mph 1009.8mb 83f
5:36 6 8 mph 1009.7mb 81f
5:30 8 11 mph 1009.6mb 79f
5:24 9 11 mph 1009.5mb 78f
5:18  -  mph 1009.6mb 80f
5:12  -  mph 1009.7mb 82f
5:06  -  mph 1009.8mb 78f
5:00 13 15 mph 1009.8mb 77f
4:54 15 17 mph 1009.8mb 76f
4:48 18 20 mph 1009.7mb 75f
4:42 17 20 mph 1009.6mb 76f
4:36 17 21 mph 1009.5mb 76f
4:30 13 14 mph 1009.6mb 77f
4:24 13 15 mph 1009.5mb 81f
4:18 14 16 mph 1009.8mb 82f
4:12 14 16 mph 1009.8mb 80f
4:06 15 17 mph 1009.7mb 78f
4:00 17 18 mph 1009.6mb 77f
3:54 17 18 mph 1009.5mb 77f
3:48 15 20 mph 1009.4mb -
3:42 14 16 mph 1009.5mb -
3:36 14 16 mph 1009.6mb -
3:30 14 16 mph - 79f
3:24 14 16 mph - 79f
3:18 13 15 mph 1009.4mb 79f
3:12 11 13 mph 1009.2mb 83f
3:06 11 13 mph 1009.4mb 89f
3:00 11 14 mph 1009.5mb -
2:54 11 14 mph 1009.5mb -
2:48 11 14 mph 1009.5mb -
2:42 10 14 mph 1009.8mb -
2:36 10 14 mph 1009.8mb -
2:30 10 16 mph 1009.9mb -
2:24 10 15 mph 1010.1mb -
2:18 11 15 mph 1010.1mb -
2:12 11 14 mph 1010.3mb -
2:06 11 14 mph 1010.4mb 90f
2:00 11 14 mph 1010.3mb 84f
1:54 15 17 mph 1010.2mb 83f
1:48 17
mph
1010.1mb 84f
1:42 17
mph
1010mb 85f
1:36 15 16 mph 1010mb 86f
1:30 14 15 mph 1010mb 87f
1:24 10 13 mph 1010.2mb -
1:18 8 11 mph 1010.5mb -
1:12 7 8 mph 1010.7mb -
1:06 7 8 mph 1010.9mb -
1:00 6 8 mph 1011.1mb -
12:54 6 7 mph 1011.2mb -
12:48 6 7 mph 1011.2mb -
12:42 6 7 mph 1011.2mb -
12:36 5 6 mph 1011.1mb -
12:30 5 6 mph 1011.2mb -
12:24 3 7 mph 1011.4mb -
12:18 3 5 mph 1011.7mb -
12:12 5 6 mph 1011.6mb -
12:06 3 6 mph 1011.8mb -
12:00 3 6 mph 1011.9mb -
11:54 3 6 mph 1012mb -
11:48 5 7 mph 1012mb -
11:42 6 7 mph 1012mb -
11:36 5 6 mph 1012.1mb -
11:30 6 7 mph 1012.2mb -
11:24 7
mph
1012.2mb -
11:18 7 10 mph 1012.3mb -
11:12 8 9 mph 1012.3mb -
11:06 8 9 mph 1012.3mb -
11:00 8 10 mph 1012.4mb -
10:54 8 9 mph 1012.5mb -
10:48 8 9 mph 1012.6mb -
10:42 7 9 mph 1012.7mb -
10:36 8 9 mph 1012.6mb -
10:30 8 9 mph 1012.7mb -
10:24 8 9 mph 1012.8mb -
10:18 7 9 mph 1012.8mb 91f
10:12 8 9 mph 1012.8mb 91f
10:06 7 9 mph 1012.8mb 91f
10:00 7 9 mph 1012.9mb 90f
9:54 7 9 mph 1012.9mb 89f
9:48 8 10 mph 1012.9mb 87f
9:42 8 9 mph 1012.9mb 86f
9:36 8 9 mph 1012.9mb 86f
9:30 7 8 mph 1013mb 86f
9:24 7 8 mph 1013mb 85f
9:12 6 8 mph 1013.1mb 83f
9:06 8 9 mph 1013mb 84f
9:00 9 10 mph 1013mb 83f
8:54 9 10 mph 1013mb 82f
8:48 10 11 mph 1012.9mb 82f
8:42 10 13 mph 1012.9mb 81f
8:36 10 13 mph 1013mb 80f
8:30 10 11 mph 1012.9mb 79f
8:24 7 8 mph 1013mb 78f
8:18 7
mph
1013.1mb 77f
8:12 8 10 mph 1013.1mb 78f
8:06 10 11 mph 1013.1mb 78f
8:00 10 11 mph 1013mb 78f
7:54 9 10 mph 1013mb 77f
7:48 9
mph
1012.9mb 77f
7:42 9 10 mph 1012.9mb 76f
7:36 8 9 mph 1012.9mb 76f
7:30 9 10 mph 1012.9mb 76f
7:24 9 10 mph 1012.8mb 76f
7:18 9
mph
1012.8mb 76f
7:12 10 11 mph 1012.7mb 75f
7:06 10 11 mph 1012.6mb 74f
7:00 9
mph
1012.6mb 75f
6:54 10 11 mph 1012.5mb 76f
6:48 10 11 mph 1012.5mb 76f
6:42 9 10 mph 1012.5mb 75f
6:36 9 10 mph 1012.4mb 74f
6:30 8 9 mph 1012.3mb 74f
6:24 9 10 mph 1012.3mb 74f
6:18 9 10 mph 1012.3mb 74f
6:12 9 10 mph 1012.2mb 74f
6:06 9 10 mph 1012.1mb 74f
6:00 10 11 mph 1012.1mb 74f
5:54 9 10 mph 1012.1mb 75f
5:48 10 11 mph 1012.1mb 74f
5:42 10 11 mph 1012mb 75f
5:36 11 14 mph 1012mb 75f
5:30 10 11 mph 1012mb 74f
5:24 9 11 mph 1012mb 73f
5:18 9 10 mph 1012mb 73f
5:12 8 9 mph 1011.9mb 72f
5:06 7 9 mph 1011.9mb 73f
5:00 9 10 mph 1011.9mb 73f
4:54 9 10 mph 1011.8mb 73f
4:48 8 9 mph 1011.8mb 74f
4:42 8 9 mph 1011.8mb 74f
4:36 8 9 mph 1011.8mb 74f
4:30 8 9 mph 1011.8mb 74f
4:24 7 8 mph 1011.8mb 73f
4:18 6 7 mph 1011.8mb 72f
4:12 6 7 mph 1011.8mb 72f
4:06 6 7 mph 1011.8mb 72f
4:00 7 8 mph 1011.8mb 71f
3:54 6 7 mph 1011.8mb 71f
3:48 3 5 mph 1011.8mb 72f
3:42 5 6 mph 1011.8mb 71f
3:36 5 6 mph 1011.9mb 72f
3:30 6 7 mph 1012mb 72f
3:24 6 7 mph 1012mb 72f
3:18 6
mph
1012mb 71f
3:12 6 7 mph 1012mb 71f
3:06 6 7 mph 1012mb 71f
3:00 8 10 mph 1012.1mb 71f
2:54 6 7 mph 1012.1mb 71f
2:48 6 7 mph 1012.2mb 71f
2:42 5 6 mph 1012.3mb 69f
2:36 5 6 mph 1012.3mb 69f
2:30 6
mph
1012.3mb 69f
2:24 3 5 mph 1012.4mb 69f
2:18 6 7 mph 1012.4mb 70f
2:12 5 6 mph 1012.5mb 70f
2:06 1 2 mph 1012.5mb 70f
2:00 3 5 mph 1012.6mb 70f
1:54 5 6 mph 1012.7mb 69f
1:48 7 10 mph 1012.7mb 70f
1:42 3 6 mph 1012.5mb 71f
1:36 3 6 mph 1012.5mb 71f
1:30 3 6 mph 1012.6mb 71f
1:24  -  2 mph 1012.7mb 69f
1:18  -  2 mph 1012.8mb 68f
1:12 2 5 mph 1012.8mb 69f
1:06 3 5 mph 1012.8mb 69f
1:00 3 5 mph 1012.8mb 69f
12:54 5 6 mph 1012.8mb 70f
12:48 2 5 mph 1012.8mb 71f
12:42 3 5 mph 1012.8mb 72f
12:36 6 8 mph 1012.6mb 73f
12:30 7 10 mph 1012.8mb 74f
12:24 2 5 mph 1012.6mb 76f
12:18  -  2 mph 1012.6mb 76f
12:12  -  2 mph 1012.7mb 76f
12:06  -  1 mph 1012.6mb 76f
12:00 3 5 mph 1012.5mb 78f
So 09/25 11:54 3 5 mph 1012.6mb 79f
11:48 5 6 mph 1012.6mb -
11:42 3 6 mph 1012.6mb -
11:36 6 7 mph 1012.6mb -
11:30 6 7 mph 1012.7mb 77f
11:24 6
mph
1012.7mb 76f
11:18 6
mph
1012.6mb 74f
11:12 5 6 mph 1012.7mb 75f
11:06 6 8 mph 1012.7mb 75f
11:00 6 8 mph 1012.8mb 76f
10:54 6 7 mph 1012.8mb 74f
10:48 2 5 mph 1012.6mb -
10:42 2 5 mph 1012.6mb -
10:36 5 6 mph 1012.8mb -
10:30 3 6 mph 1012.8mb 78f
10:24 2 6 mph 1012.8mb 78f
10:18 3 5 mph 1012.7mb 78f
10:12 3 6 mph 1012.8mb 77f
10:06 3 5 mph 1012.8mb 76f
10:00 5 6 mph 1012.7mb 74f
9:54 3 6 mph 1012.6mb 74f
9:48 3 5 mph 1012.5mb 74f
9:42 2 3 mph 1012.4mb 73f
9:36 2 3 mph 1012.3mb 73f
9:30 2 5 mph 1012.3mb 73f
9:24 2 3 mph 1012.3mb 73f
9:18 2 3 mph 1012.3mb 73f
9:12 2 5 mph 1012mb 73f
9:06 3 8 mph 1012mb 76f
9:00 3 6 mph 1012mb 78f
8:54 5 10 mph 1012mb 76f
8:48 3 8 mph 1012mb 75f
8:42 2 6 mph 1011.9mb 74f
8:36 6 11 mph 1011.8mb 74f
8:30 5 6 mph 1011.8mb 76f
8:24 3 6 mph 1011.7mb 76f
8:18 5
mph
1011.7mb 76f
8:12 5 7 mph 1011.7mb 76f
8:06 8 9 mph 1011.6mb 77f
8:00 7 9 mph 1011.5mb 76f
7:54 8 14 mph 1011.3mb 80f
7:48 10 13 mph 1011.5mb 82f
7:42 9 13 mph 1011.4mb 82f
7:36 8 13 mph 1011.3mb 82f
7:30 7 11 mph 1011.2mb 82f
7:24 6 8 mph 1011.2mb 82f
7:18 5 7 mph - 83f
7:12 7 8 mph - 83f
7:06 5 6 mph - 80f
7:00 1 3 mph 1010.9mb 79f
6:54  -  1 mph 1010.7mb 82f
6:48  -  2 mph - 83f
6:42 2 3 mph - 85f
6:36 6 7 mph - 86f
6:30 5 6 mph 1010.7mb 87f
6:24 3 6 mph 1010.7mb 87f
6:18 6 10 mph 1010.6mb 86f
6:12 8 10 mph 1010.5mb 86f
6:06 8 10 mph 1010.4mb 86f
6:00 8 11 mph 1010.4mb 87f
5:54 8 11 mph 1010.4mb 87f
5:48 8 10 mph 1010.5mb 88f
5:42 6 8 mph 1010.6mb 89f
5:36 6 8 mph 1010.5mb 89f
5:30 10 13 mph 1010.3mb 88f
5:24 13 14 mph 1010.3mb 88f
5:18 10 11 mph 1010.4mb 88f
5:12 9 13 mph 1010.5mb 89f
5:06 8 13 mph 1010.5mb 89f
5:00 9 13 mph 1010.6mb 90f
4:54 11 14 mph 1010.5mb 89f
4:48 9 11 mph 1010.7mb -
4:42 9 11 mph 1010.7mb -
4:36 13 15 mph 1010.6mb -
4:30 13 15 mph - 88f
4:24 13 15 mph - 88f
4:18 14 15 mph 1010.7mb 89f
4:12 11 14 mph 1010.8mb 89f
4:06 10 11 mph 1010.9mb 90f
4:00 9 10 mph 1011mb 91f
3:54 8 10 mph 1011.1mb -
3:48 10 11 mph 1011.2mb -
3:42 10 14 mph 1011.1mb -
3:36 8 14 mph 1011.2mb -
3:30 5 7 mph 1011.3mb -
3:24 6 9 mph 1011.4mb -
3:18 8 11 mph 1011.3mb -
3:12 7 9 mph 1011.4mb -
3:06 9 13 mph 1011.5mb -
3:00 10 14 mph 1011.5mb -
2:54 10 14 mph 1011.4mb -
2:48 11 14 mph 1011.5mb -
2:42 10 13 mph 1011.7mb -
2:36 9 14 mph 1011.7mb -
2:30 11 13 mph 1011.8mb -
2:24 10 13 mph 1011.9mb -
2:18 8 13 mph 1012.2mb -
2:12 10 13 mph 1012.4mb -
2:06 9 13 mph 1012.6mb 89f
2:00 11 13 mph 1012.6mb 81f
1:54 13 14 mph 1012.4mb 78f
1:48 11 13 mph 1012.6mb 81f
1:42 10 11 mph 1012.6mb 80f
1:36 10 11 mph 1012.7mb 83f
1:30 9 10 mph 1012.9mb 84f
1:24 8 9 mph 1013.1mb 83f
1:18 8 9 mph 1013.3mb 83f
1:12 10 13 mph 1013.2mb 80f
1:06 9 13 mph 1013.1mb 79f
1:00 8 9 mph 1013.4mb 85f
12:54 9 10 mph 1013.6mb 82f
12:48 9 13 mph 1013.7mb 80f
12:42 8 9 mph 1013.7mb 76f
12:36 7 8 mph 1013.6mb 75f
12:30 6 7 mph 1013.9mb 75f
12:24 6
mph
1013.9mb 74f
12:18 5 6 mph 1014mb 77f
12:12 3 5 mph 1014.2mb 77f
12:06 2 3 mph 1014.2mb 77f
12:00 3 5 mph 1014.3mb 77f
11:54 2
mph
1014.4mb 77f
11:48 2 3 mph 1014.4mb 76f
11:42 3 5 mph 1014.4mb 77f
11:36 2 3 mph 1014.8mb 80f
11:30 2 3 mph 1015mb 75f
11:24 3 5 mph 1014.9mb 73f
11:18 5 6 mph 1014.9mb 72f
11:12 6 7 mph 1015mb 72f
11:06 7
mph
1015mb 72f
11:00 6 7 mph 1015mb 70f
10:54 6
mph
1015.1mb 71f
10:48 6
mph
1015.2mb 71f
10:42 8 9 mph 1015.2mb 71f
10:36 8 9 mph 1015.2mb 73f
10:30 8 9 mph 1015.3mb 73f
10:24 9
mph
1015.3mb 73f
10:18 8 9 mph 1015.4mb 73f
10:12 8 9 mph 1015.4mb 71f
10:06 6 7 mph 1015.3mb 72f
9:54 2 3 mph 1015.4mb 74f
9:48 2 3 mph 1015.2mb 73f
9:42 2
mph
1015.3mb 75f
9:36  -  2 mph 1015.5mb 75f
9:30 2
mph
1015.5mb 73f
9:24 2 3 mph 1015.4mb 73f
9:18 2 3 mph 1015.4mb 72f
9:12 2 3 mph 1015.5mb 72f
9:06 3 5 mph 1015.4mb 71f
9:00 5
mph
1015.5mb 72f
8:54 5 6 mph 1015.4mb 71f
8:48 5
mph
1015.4mb 72f
8:42 3 5 mph 1015.5mb 71f
8:36 3 5 mph 1015.4mb 71f
8:30 3 5 mph 1015.5mb 72f
8:24 2 3 mph 1015.5mb 73f
8:18 1 3 mph 1015.6mb 71f
8:12 2 3 mph 1015.5mb 70f
8:06 3 5 mph 1015.4mb 69f
8:00 5 6 mph 1015.3mb 69f
7:54 3 5 mph 1015.4mb 69f
7:48 3 5 mph 1015.5mb 69f
7:42 3 5 mph 1015.3mb 69f
7:36 2 3 mph - 69f
7:30 1 2 mph 1015.3mb 69f
7:24 2 5 mph 1015.3mb 69f
7:18 2 3 mph 1015.3mb 67f
7:12 2 3 mph 1015.2mb 67f
7:06 3 6 mph 1015.1mb 66f
7:00 6 7 mph 1014.9mb 65f
6:54 5 6 mph 1014.8mb 64f
6:48 3
mph
1014.8mb 65f
6:42 2 3 mph 1014.8mb 65f
6:36 2 3 mph 1014.8mb 65f
6:30 3 5 mph 1014.8mb 65f
6:24 5 6 mph 1014.7mb 64f
6:18 5 6 mph 1014.8mb 65f
6:12 3 5 mph 1014.7mb 65f
6:06  -  1 mph 1014.5mb 64f
6:00 1
mph
1014.5mb 64f
5:54  -  1 mph 1014.5mb 64f
5:48 2 3 mph 1014.4mb 65f
5:42 2 3 mph 1014.2mb 64f
5:36 1 3 mph 1014.3mb 64f
5:30 2 3 mph 1014.2mb 65f
5:24 2 3 mph 1014.2mb 65f
5:18  -  2 mph 1014.2mb 65f
5:12  -  1 mph 1014.2mb 65f
5:06  -  1 mph 1014.1mb 65f
5:00 2
mph
1014.1mb 65f
4:54 1 2 mph 1014mb 65f
4:48 2
mph
1013.9mb 65f
4:42 1 2 mph 1013.9mb 65f
4:36  -  2 mph 1013.7mb 65f
4:30  -  2 mph 1013.8mb 66f
4:24  -  2 mph 1013.7mb 66f
4:18 2 3 mph 1013.8mb 66f
4:12 3 5 mph 1013.7mb 66f
4:06 3 5 mph 1013.8mb 66f
4:00  -  1 mph 1013.7mb 66f
3:54 2 5 mph 1013.7mb 67f
3:48 3 5 mph 1013.7mb 67f
3:42 5 8 mph 1013.7mb 67f
3:36 7
mph
1013.8mb 67f
3:30 6 7 mph 1013.7mb 67f
3:24 6 7 mph 1013.8mb 67f
3:18 5 6 mph 1013.7mb 67f
3:12 5
mph
1013.7mb 67f
3:06 2 3 mph 1013.9mb 68f
3:00 2 3 mph 1013.9mb 68f
2:54 2 3 mph 1014mb 68f
2:48  -  1 mph 1014.1mb 67f
2:42 1 2 mph 1014mb 67f
2:36 1 3 mph 1014mb 67f
2:30 2 3 mph 1014mb 67f
2:24 2 3 mph 1014.1mb 67f
2:18 2 3 mph 1014.1mb 67f
2:12 2 3 mph 1014.2mb 67f
2:06 2 3 mph 1014.2mb 67f
2:00 5 7 mph 1014.2mb 67f
1:54 5 7 mph 1014.2mb 68f
1:48 3 5 mph 1014.2mb 68f
1:42 3 5 mph 1014.2mb 68f
1:36 3 5 mph 1014.2mb 68f
1:30 5 6 mph 1014.2mb 68f
1:24 5 6 mph 1014.1mb 68f
1:18 5 6 mph 1014.2mb 69f
1:12 3 5 mph 1014.1mb 68f
1:06 3 5 mph 1014.1mb 68f
1:00 1 2 mph 1014mb 68f
12:54 1 2 mph 1014mb 69f
12:48 3 5 mph 1013.9mb 69f
12:42 2 3 mph 1013.9mb 69f
12:36 3 6 mph 1013.9mb 69f
12:30 5 6 mph 1013.9mb 69f
12:24 7 8 mph 1014mb 69f
12:18 6 7 mph 1014mb 69f
12:12 6 7 mph 1014.1mb 70f
12:06 5 6 mph 1014mb 70f
12:00 3 6 mph 1013.9mb 69f
Sa 09/24 11:54 5 6 mph 1014mb 69f
11:48 3 6 mph 1014mb -
11:42 2 3 mph 1013.8mb -
11:36 2
mph
1013.9mb -
11:30 2
mph
1013.7mb 70f
11:24 2 3 mph 1013.7mb 71f
11:18 3 5 mph 1013.9mb 71f
11:12 3 5 mph 1013.8mb 69f
11:06 3 5 mph 1013.8mb 70f
11:00 3
mph
1013.9mb 69f
10:54 3 5 mph 1014mb 69f
10:48 2 3 mph - -
10:42  -  2 mph - -
10:36 2
mph
- -
10:30 3 6 mph 1013.9mb 71f
10:24 5 6 mph 1014.2mb 70f
10:18 1 3 mph 1014mb 70f
10:12 1 2 mph 1013.8mb 69f
10:06  -  2 mph 1013.7mb 69f
10:00 1 3 mph 1013.9mb 69f
9:54 1 2 mph 1013.9mb 69f
9:48 2 3 mph 1013.9mb 70f
9:42 3 5 mph 1013.9mb 70f
9:36 3 6 mph 1014mb 70f
9:30 3 5 mph 1013.9mb 70f
9:24 3 6 mph 1013.9mb 70f
9:18 5 6 mph 1013.8mb 71f
9:12 5 6 mph 1013.9mb 72f
9:06 7 8 mph 1013.9mb 72f
9:00 5 6 mph 1013.9mb 72f
8:54 7 9 mph 1013.8mb 70f
8:48 3 7 mph 1013.8mb 71f
8:42 2 6 mph 1013.6mb 71f
8:36 5 9 mph 1013.6mb 73f
8:30 5 6 mph 1013.6mb 75f
8:24 5 6 mph 1013.6mb 74f
8:18 3 5 mph 1013.5mb 73f
8:12 1 2 mph 1013.4mb 71f
8:06 1 2 mph 1013.4mb 73f
8:00 3 6 mph 1013.4mb 75f
7:54 5 7 mph 1013.4mb 75f
7:48 6 7 mph 1013.2mb 74f
7:42 6
mph
1013.1mb 75f
7:36 8 10 mph 1013.1mb 76f
7:30 9 11 mph 1013.1mb 77f
7:24 8 10 mph 1013mb 77f
7:18 8 11 mph 1013.1mb 78f
7:12 9 11 mph 1013mb 78f
7:06 10 13 mph 1013mb 79f
7:00 7 11 mph 1013mb 78f
6:54 2 6 mph 1012.9mb 75f
6:48 1 2 mph 1012.8mb 74f
6:42 2 6 mph 1012.8mb 75f
6:36 5 7 mph 1012.7mb 76f
6:30 3 6 mph 1012.7mb -
6:24 3 5 mph 1012.7mb -
6:18 6 8 mph 1012.6mb 76f
6:12 5 6 mph 1012.6mb 77f
6:06 1 3 mph 1012.8mb 79f
6:00 3 5 mph 1012.7mb 79f
5:54 3 6 mph 1012.5mb 78f
5:48 5 9 mph 1012.5mb 83f
5:42 9 13 mph 1012.6mb 85f
5:36 10 13 mph 1012.6mb 85f
5:30 9 11 mph 1012.6mb 86f
5:24 8 10 mph 1012.6mb 86f
5:18 9 13 mph 1012.5mb 86f
5:12 8 10 mph 1012.5mb 86f
5:06 8 10 mph 1012.5mb 86f
5:00 9 10 mph 1012.5mb 85f
4:54 8 10 mph 1012.6mb 84f
4:48 8 11 mph 1012.6mb -
4:42 5 8 mph 1012.6mb -
4:36 1 2 mph 1012.8mb -
4:30 5 8 mph 1012.7mb 82f
4:24 7 8 mph 1012.5mb 81f
4:18 7 8 mph 1012.6mb 81f
4:12 7 8 mph 1012.6mb 81f
4:06 7 9 mph 1012.6mb 81f
4:00  -  mph 1012.7mb 82f
3:54  -  mph 1012.8mb 82f
3:48 6 9 mph 1012.9mb -
3:42 7 8 mph 1012.9mb -
3:36 9 10 mph 1012.9mb -
3:30 9 11 mph - -
3:24 9 10 mph - -
3:18 8 10 mph 1013.1mb 81f
3:12 7 9 mph 1013.3mb 80f
3:06 10 11 mph 1013.2mb 78f
3:00 13 14 mph 1013.1mb 77f
2:54 13 14 mph 1013.1mb 77f
2:48 14 15 mph 1013.3mb 77f
2:42 14
mph
1013.2mb 76f
2:36 13 14 mph 1013.1mb 76f
2:30 14 15 mph 1013.2mb 76f
2:24 11 14 mph 1013.3mb 76f
2:18 10 13 mph 1013.4mb 77f
2:12 10 11 mph 1013.6mb 76f
2:06 13 14 mph 1013.6mb 76f
2:00 14
mph
1013.7mb 74f
1:54 15 16 mph 1013.7mb 74f
1:48 16 17 mph 1013.8mb 74f
1:42 15 16 mph 1014mb 74f
1:36 16
mph
1014mb 73f
1:30 15 16 mph 1014mb 73f
1:24 16 17 mph 1014.2mb 73f
1:18 16 17 mph 1014.2mb 73f
1:12 16 17 mph 1014.4mb 73f
1:06 15 17 mph 1014.3mb 73f
1:00 13 14 mph 1014.4mb 74f
12:54 14 15 mph 1014.5mb 74f
12:48 15
mph
1014.7mb 73f
12:42 14 15 mph 1014.7mb 71f
12:36 13 15 mph 1014.9mb 72f
12:30 11 14 mph 1014.9mb 70f
12:24 9 11 mph 1015mb 71f
12:18 10 13 mph 1015.2mb 71f
12:12 9 11 mph 1015mb 70f
12:06 9 11 mph 1015.2mb 71f
12:00 7 9 mph 1015.2mb 70f
11:54 7 9 mph 1015.2mb 70f
11:48 8 9 mph 1015.3mb 70f
11:42 8 9 mph 1015.2mb 69f
11:36 8 9 mph 1015.3mb 69f
11:30 8 9 mph 1015.2mb 69f
11:24 7 8 mph 1015.3mb 69f
11:18 6 7 mph 1015.3mb 70f
11:12 6
mph
1015.4mb 72f
11:06 5
mph
1015.6mb 72f
11:00 3 5 mph 1015.6mb 71f
10:48 3 5 mph 1015.7mb 68f
10:42 5 6 mph 1015.7mb 68f
10:36 5 6 mph 1015.6mb 69f
10:30 6 7 mph 1015.8mb 70f
10:24 6 7 mph 1015.8mb 70f
10:18 6 7 mph 1015.8mb 70f
10:12 7
mph
1015.8mb 71f
10:06 6 7 mph 1015.8mb 70f
10:00 5 6 mph 1015.7mb 69f
9:54 5
mph
1015.5mb 67f
9:48 3 5 mph 1015.5mb 67f
9:42 3
mph
1015.4mb 68f
9:36 3
mph
1015.4mb 70f
9:30 3 5 mph 1015.5mb 69f
9:24 5
mph
1015.5mb 70f
9:18 5 6 mph 1015.5mb 69f
9:12 3
mph
1015.4mb 68f
9:06 2
mph
1015.3mb 69f
9:00 1 2 mph 1015.3mb 70f
8:54  -  1 mph 1015.3mb 70f
8:48  -  2 mph 1015.4mb 70f
8:42 1 2 mph 1015.4mb 70f
8:36 1 2 mph 1015.4mb 69f
8:30  -  1 mph 1015.4mb 69f
8:24  -  1 mph 1015.3mb 68f
8:18  -  mph 1015.4mb 68f
8:12  -  1 mph 1015.4mb 68f
8:06 1
mph
1015.4mb 67f
8:00 1 2 mph 1015.4mb 67f
7:54 1
mph
1015.4mb 67f
7:48 1 2 mph 1015.4mb 67f
7:42 2
mph
1015.3mb 67f
7:36  -  2 mph - 67f
7:30  -  1 mph 1015.3mb 67f
7:24  -  3 mph 1015.3mb 67f
7:18 2 5 mph 1015.3mb 66f
7:12 3 6 mph 1015.3mb 65f
7:06 5
mph
1015.2mb 65f
7:00 2 3 mph 1015mb 64f
6:54 2 3 mph 1014.9mb 64f
6:48 1 2 mph 1014.8mb 64f
6:42 2 3 mph 1014.8mb 64f
6:36 3
mph
1014.7mb 64f
6:30  -  2 mph 1014.6mb 64f
6:24  -  2 mph 1014.6mb 64f
6:18 2
mph
1014.8mb 64f
6:12 2 3 mph 1014.8mb 65f
6:06 2 3 mph 1014.9mb 64f
6:00 2 3 mph 1014.9mb 64f
5:54 2
mph
1014.7mb 64f
5:48 3
mph
1014.7mb 64f
5:42 2 3 mph 1014.5mb 64f
5:36 2
mph
1014.4mb 64f
5:30 2 3 mph 1014.3mb 64f
5:24  -  2 mph 1014.3mb 64f
5:18 1 2 mph 1014.2mb 64f
5:12  -  2 mph 1014.2mb 64f
5:06 2
mph
1014.3mb 65f
5:00 1 2 mph 1014.3mb 64f
4:54 2 3 mph 1014.2mb 65f
4:48 2 3 mph 1014.3mb 65f
4:42 3 5 mph 1014.3mb 65f
4:36 3 5 mph 1014.3mb 65f
4:30 5
mph
1014.2mb 65f
4:24 5 6 mph 1014.1mb 65f
4:18 3 5 mph 1014.2mb 65f
4:12 2
mph
1014.2mb 65f
4:06  -  1 mph 1014.2mb 64f
4:00  -  2 mph 1014.1mb 65f
3:54 2
mph
1014mb 64f
3:48 1 2 mph 1013.9mb 64f
3:42 2
mph
1013.8mb 64f
3:36 1 2 mph 1013.7mb 64f
3:30  -  mph 1013.7mb 64f
3:24 1 2 mph 1013.7mb 65f
3:18 2 3 mph 1013.8mb 64f
3:12 2 3 mph 1014mb 64f
3:06  -  1 mph 1014mb 64f
3:00 2
mph
1014.3mb 64f
2:54  -  2 mph 1014.4mb 64f
2:48  -  mph 1014.2mb 64f
2:42  -  1 mph 1014.2mb 65f
2:36 1 2 mph 1014.1mb 64f
2:30 2 3 mph 1014.1mb 64f
2:24 3
mph
1014mb 65f
2:18 3
mph
1014.1mb 65f
2:12 2 3 mph 1014.1mb 65f
2:06 1 2 mph 1014.2mb 66f
2:00  -  1 mph 1014.2mb 66f
1:54  -  1 mph 1014.2mb 66f
1:48  -  1 mph 1014.2mb 66f
1:42  -  1 mph 1014mb 66f
1:36  -  1 mph 1013.9mb 66f
1:30  -  1 mph 1013.8mb 66f
1:24 1
mph
1013.9mb 67f
1:18 1
mph
1013.8mb 67f
1:12  -  1 mph 1013.8mb 66f
1:06  -  mph 1013.7mb 66f
1:00  -  1 mph 1013.8mb 67f
12:54  -  1 mph 1013.7mb 67f
12:48 2
mph
1013.8mb 66f
12:42 2
mph
1013.7mb 67f
12:36 1
mph
1013.7mb 67f
12:30 1
mph
1013.7mb 67f
12:24  -  1 mph 1013.8mb 67f
12:18 1 2 mph 1013.8mb 66f
12:12 1 2 mph 1013.7mb 66f
12:06 1
mph
1013.8mb 66f
12:00  -  1 mph 1013.8mb 66f
Fr 09/23 11:54  -  mph 1013.9mb 67f
11:48  -  1 mph 1013.9mb 67f
11:42  -  1 mph 1014mb 67f
11:36  -  1 mph 1014mb 67f
11:30 1 2 mph 1013.9mb 67f
11:24 2
mph
1013.9mb 67f
11:18 2
mph
1013.9mb 67f
11:12 3
mph
1013.8mb 67f
11:06 2 3 mph 1013.8mb 68f
11:00 1 2 mph 1013.9mb 68f
10:54 2
mph
1013.9mb 68f
10:48 2
mph
1013.9mb 68f
10:42  -  2 mph 1013.7mb 68f
10:36 2
mph
1013.7mb 67f
10:30 1 2 mph 1013.7mb 66f
10:24 1 2 mph 1013.6mb 66f
10:18 2
mph
1013.7mb 66f
10:12  -  2 mph 1013.7mb 67f
10:06  -  1 mph 1013.7mb 66f
10:00  -  1 mph 1013.6mb 67f
9:54  -  1 mph 1013.6mb 67f
9:48  -  1 mph 1013.6mb 67f
9:42 1 3 mph 1013.4mb 67f
9:36 1 2 mph 1013.5mb 67f
9:30 1 2 mph 1013.4mb 68f
9:24 2
mph
1013.4mb 67f
9:18 2
mph
1013.4mb 67f
9:12  -  2 mph 1013.4mb 67f
9:06 2
mph
1013.3mb 67f
9:00 3
mph
1013.3mb 67f
8:54 2 3 mph 1013.3mb 67f
8:48 3
mph
1013.3mb 67f
8:42 2
mph
1013.3mb 67f
8:36 2
mph
1013.3mb 67f
8:30 2 3 mph 1013.3mb 67f
8:24 5 6 mph 1013.3mb 67f
8:18 5 6 mph 1013.1mb 68f
8:12 3 5 mph 1013.1mb 71f
8:06 3 5 mph 1013.2mb 70f
8:00 1 5 mph 1013.1mb 69f
7:54 2 5 mph 1013.1mb 69f
7:48 1 5 mph 1012.9mb 69f
7:42 1 2 mph 1012.8mb 69f
7:36 3 5 mph 1012.8mb 69f
7:30 1 5 mph 1012.8mb 70f
7:24 2 3 mph 1012.8mb 69f
7:18 1 5 mph 1012.8mb 69f
7:12 1 5 mph 1012.8mb 69f